Disclaimer

Please do not use the information listed here in-flight or in-navigation, as they are not provided to us by the airports but are provided by volunteers, so they might be outdated.

Search


Regions


Airport information page

Radio informations:
CHELYABINSK METE - 128.3 MHz

Airport informations:
Latitude: 55° 18' 21.01" N
Longitude: 061° 30' 12.00" E
Elevation: 769 feet - 234 meters
Operating hours: 24 hour operations
Operating agency: Civil government, landing fees and diplomatic clearance may be required
Timezone: UTC+5(+6DT) - Last Sunday in March to last Sunday in October
Fuel: N/A

Runway information:
09/27 - 10499 x 197 feet< - >3200 x 60 meters

Recent METARs:
USCC 122000Z 28007G12MPS CAVOK M06/M15 Q1037 R27/250055 NOSIG RMK QFE757
USCC 122030Z 29006MPS CAVOK M06/M15 Q1037 R27/250055 NOSIG RMK QFE757
USCC 122100Z 29007MPS CAVOK M06/M15 Q1037 R27/250055 NOSIG RMK QFE757

Airport on the map: